sensor_id;sensor_type;location;lat;lon;timestamp;pressure;altitude;pressure_sealevel;temperature;humidity
76448;BME280;65284;51.040;13.722;2023-09-18T00:00:03;99626.84;;;19.60;73.49
76448;BME280;65284;51.040;13.722;2023-09-18T00:02:34;99621.25;;;19.62;73.42
76448;BME280;65284;51.040;13.722;2023-09-18T00:05:01;99619.13;;;19.64;73.34
76448;BME280;65284;51.040;13.722;2023-09-18T00:07:27;99619.31;;;19.50;73.82
76448;BME280;65284;51.040;13.722;2023-09-18T00:09:54;99625.56;;;19.63;73.70
76448;BME280;65284;51.040;13.722;2023-09-18T00:12:20;99621.09;;;19.57;73.73
76448;BME280;65284;51.040;13.722;2023-09-18T00:14:48;99613.94;;;19.50;74.20
76448;BME280;65284;51.040;13.722;2023-09-18T00:17:16;99611.34;;;19.44;74.64
76448;BME280;65284;51.040;13.722;2023-09-18T00:19:43;99609.47;;;19.44;74.66
76448;BME280;65284;51.040;13.722;2023-09-18T00:22:09;99616.47;;;19.45;74.75
76448;BME280;65284;51.040;13.722;2023-09-18T00:24:36;99602.88;;;19.40;74.75
76448;BME280;65284;51.040;13.722;2023-09-18T00:27:03;99604.19;;;19.38;74.87
76448;BME280;65284;51.040;13.722;2023-09-18T00:29:29;99596.59;;;19.46;75.05
76448;BME280;65284;51.040;13.722;2023-09-18T00:31:56;99600.06;;;19.35;75.06
76448;BME280;65284;51.040;13.722;2023-09-18T00:34:22;99598.09;;;19.42;75.19
76448;BME280;65284;51.040;13.722;2023-09-18T00:36:49;99608.00;;;19.30;75.61
76448;BME280;65284;51.040;13.722;2023-09-18T00:39:15;99601.44;;;19.26;75.53
76448;BME280;65284;51.040;13.722;2023-09-18T00:41:42;99601.69;;;19.36;75.73
76448;BME280;65284;51.040;13.722;2023-09-18T00:44:09;99597.69;;;19.27;75.84
76448;BME280;65284;51.040;13.722;2023-09-18T00:46:36;99587.63;;;19.34;75.89
76448;BME280;65284;51.040;13.722;2023-09-18T00:49:03;99582.25;;;19.34;76.01
76448;BME280;65284;51.040;13.722;2023-09-18T00:51:30;99583.63;;;19.25;76.31
76448;BME280;65284;51.040;13.722;2023-09-18T00:53:57;99585.13;;;19.21;76.55
76448;BME280;65284;51.040;13.722;2023-09-18T00:56:24;99585.75;;;19.23;76.55
76448;BME280;65284;51.040;13.722;2023-09-18T00:58:50;99585.84;;;19.28;76.37
76448;BME280;65284;51.040;13.722;2023-09-18T01:01:18;99576.25;;;19.20;76.32
76448;BME280;65284;51.040;13.722;2023-09-18T01:03:50;99570.59;;;19.22;76.72
76448;BME280;65284;51.040;13.722;2023-09-18T01:06:17;99575.88;;;19.17;77.08
76448;BME280;65284;51.040;13.722;2023-09-18T01:08:47;99574.69;;;19.13;76.83
76448;BME280;65284;51.040;13.722;2023-09-18T01:14:05;99563.03;;;19.00;77.68
76448;BME280;65284;51.040;13.722;2023-09-18T01:16:40;99561.97;;;19.01;77.70
76448;BME280;65284;51.040;13.722;2023-09-18T01:19:10;99559.28;;;19.01;77.96
76448;BME280;65284;51.040;13.722;2023-09-18T01:21:37;99550.03;;;18.97;78.15
76448;BME280;65284;51.040;13.722;2023-09-18T01:24:04;99548.75;;;19.00;78.16
76448;BME280;65284;51.040;13.722;2023-09-18T01:26:30;99546.75;;;18.95;78.41
76448;BME280;65284;51.040;13.722;2023-09-18T01:28:57;99542.72;;;18.86;78.79
76448;BME280;65284;51.040;13.722;2023-09-18T01:31:23;99537.69;;;18.90;78.91
76448;BME280;65284;51.040;13.722;2023-09-18T01:33:53;99534.78;;;18.91;78.95
76448;BME280;65284;51.040;13.722;2023-09-18T01:36:20;99534.78;;;18.91;78.73
76448;BME280;65284;51.040;13.722;2023-09-18T01:38:48;99533.88;;;18.97;78.66
76448;BME280;65284;51.040;13.722;2023-09-18T01:41:16;99526.47;;;18.93;78.75
76448;BME280;65284;51.040;13.722;2023-09-18T01:43:43;99525.22;;;18.95;78.99
76448;BME280;65284;51.040;13.722;2023-09-18T01:46:10;99524.94;;;18.85;79.30
76448;BME280;65284;51.040;13.722;2023-09-18T01:48:36;99514.63;;;18.82;79.31
76448;BME280;65284;51.040;13.722;2023-09-18T01:51:04;99511.03;;;18.88;79.22
76448;BME280;65284;51.040;13.722;2023-09-18T01:53:30;99514.63;;;18.82;79.58
76448;BME280;65284;51.040;13.722;2023-09-18T01:55:57;99512.06;;;18.87;79.37
76448;BME280;65284;51.040;13.722;2023-09-18T01:58:24;99499.41;;;18.76;79.84
76448;BME280;65284;51.040;13.722;2023-09-18T02:00:51;99501.75;;;18.65;80.32
76448;BME280;65284;51.040;13.722;2023-09-18T02:03:17;99504.44;;;18.65;80.34
76448;BME280;65284;51.040;13.722;2023-09-18T02:06:07;99505.25;;;18.66;80.34
76448;BME280;65284;51.040;13.722;2023-09-18T02:08:35;99503.53;;;18.72;79.85
76448;BME280;65284;51.040;13.722;2023-09-18T02:11:01;99507.75;;;18.68;80.63
76448;BME280;65284;51.040;13.722;2023-09-18T02:13:29;99508.81;;;18.67;80.49
76448;BME280;65284;51.040;13.722;2023-09-18T02:15:56;99496.63;;;18.64;80.76
76448;BME280;65284;51.040;13.722;2023-09-18T02:18:22;99487.84;;;18.69;80.58
76448;BME280;65284;51.040;13.722;2023-09-18T02:20:49;99492.16;;;18.58;81.20
76448;BME280;65284;51.040;13.722;2023-09-18T02:23:15;99486.38;;;18.54;81.48
76448;BME280;65284;51.040;13.722;2023-09-18T02:25:42;99487.59;;;18.58;81.49
76448;BME280;65284;51.040;13.722;2023-09-18T02:28:08;99468.00;;;18.51;81.84
76448;BME280;65284;51.040;13.722;2023-09-18T02:30:35;99477.72;;;18.52;81.85
76448;BME280;65284;51.040;13.722;2023-09-18T02:33:01;99472.25;;;18.59;81.69
76448;BME280;65284;51.040;13.722;2023-09-18T02:35:29;99476.06;;;18.51;82.05
76448;BME280;65284;51.040;13.722;2023-09-18T02:37:56;99476.91;;;18.52;82.07
76448;BME280;65284;51.040;13.722;2023-09-18T02:40:23;99466.38;;;18.50;82.03
76448;BME280;65284;51.040;13.722;2023-09-18T02:42:49;99464.59;;;18.44;82.41
76448;BME280;65284;51.040;13.722;2023-09-18T02:45:16;99461.66;;;18.46;82.32
76448;BME280;65284;51.040;13.722;2023-09-18T02:47:42;99464.50;;;18.51;82.14
76448;BME280;65284;51.040;13.722;2023-09-18T02:50:10;99451.75;;;18.46;82.44
76448;BME280;65284;51.040;13.722;2023-09-18T02:52:37;99462.88;;;18.50;82.26
76448;BME280;65284;51.040;13.722;2023-09-18T02:55:04;99452.94;;;18.50;82.19
76448;BME280;65284;51.040;13.722;2023-09-18T02:57:31;99455.47;;;18.45;82.25
76448;BME280;65284;51.040;13.722;2023-09-18T02:59:57;99455.91;;;18.42;82.78
76448;BME280;65284;51.040;13.722;2023-09-18T03:02:24;99453.00;;;18.44;82.14
76448;BME280;65284;51.040;13.722;2023-09-18T03:04:51;99455.09;;;18.41;82.58
76448;BME280;65284;51.040;13.722;2023-09-18T03:07:18;99456.53;;;18.26;83.27
76448;BME280;65284;51.040;13.722;2023-09-18T03:09:44;99458.63;;;18.24;83.56
76448;BME280;65284;51.040;13.722;2023-09-18T03:12:10;99455.63;;;18.32;83.31
76448;BME280;65284;51.040;13.722;2023-09-18T03:14:37;99457.72;;;18.30;83.21
76448;BME280;65284;51.040;13.722;2023-09-18T03:17:03;99454.13;;;18.36;83.02
76448;BME280;65284;51.040;13.722;2023-09-18T03:19:30;99456.44;;;18.32;83.22
76448;BME280;65284;51.040;13.722;2023-09-18T03:21:57;99455.63;;;18.32;83.46
76448;BME280;65284;51.040;13.722;2023-09-18T03:24:23;99442.19;;;18.32;83.31
76448;BME280;65284;51.040;13.722;2023-09-18T03:26:49;99450.78;;;18.22;83.74
76448;BME280;65284;51.040;13.722;2023-09-18T03:29:16;99445.41;;;18.22;83.76
76448;BME280;65284;51.040;13.722;2023-09-18T03:31:42;99432.94;;;18.09;84.24
76448;BME280;65284;51.040;13.722;2023-09-18T03:34:09;99432.34;;;18.07;84.49
76448;BME280;65284;51.040;13.722;2023-09-18T03:36:36;99426.81;;;18.02;85.24
76448;BME280;65284;51.040;13.722;2023-09-18T03:39:03;99418.75;;;18.02;85.25
76448;BME280;65284;51.040;13.722;2023-09-18T03:41:31;99413.38;;;18.02;85.19
76448;BME280;65284;51.040;13.722;2023-09-18T03:44:00;99418.00;;;17.95;85.63
76448;BME280;65284;51.040;13.722;2023-09-18T03:46:28;99417.88;;;18.08;85.12
76448;BME280;65284;51.040;13.722;2023-09-18T03:48:55;99412.50;;;18.08;85.04
76448;BME280;65284;51.040;13.722;2023-09-18T03:51:23;99410.69;;;18.02;85.02
76448;BME280;65284;51.040;13.722;2023-09-18T03:53:50;99415.47;;;18.00;85.45
76448;BME280;65284;51.040;13.722;2023-09-18T03:56:17;99411.28;;;18.04;85.10
76448;BME280;65284;51.040;13.722;2023-09-18T03:58:44;99412.50;;;18.08;84.94
76448;BME280;65284;51.040;13.722;2023-09-18T04:01:12;99409.72;;;17.96;85.40
76448;BME280;65284;51.040;13.722;2023-09-18T04:03:39;99414.88;;;17.98;85.37
76448;BME280;65284;51.040;13.722;2023-09-18T04:06:05;99405.03;;;18.10;85.24
76448;BME280;65284;51.040;13.722;2023-09-18T04:08:33;99404.00;;;17.93;85.76
76448;BME280;65284;51.040;13.722;2023-09-18T04:10:59;99398.00;;;17.91;85.83
76448;BME280;65284;51.040;13.722;2023-09-18T04:13:26;99392.91;;;17.83;86.16
76448;BME280;65284;51.040;13.722;2023-09-18T04:15:54;99391.59;;;17.92;85.96
76448;BME280;65284;51.040;13.722;2023-09-18T04:18:23;99392.47;;;17.86;86.45
76448;BME280;65284;51.040;13.722;2023-09-18T04:20:49;99384.28;;;17.81;86.66
76448;BME280;65284;51.040;13.722;2023-09-18T04:23:23;99383.84;;;17.77;86.72
76448;BME280;65284;51.040;13.722;2023-09-18T04:25:51;99374.38;;;17.74;86.78
76448;BME280;65284;51.040;13.722;2023-09-18T04:28:21;99378.06;;;17.80;86.43
76448;BME280;65284;51.040;13.722;2023-09-18T04:30:48;99373.56;;;17.74;86.95
76448;BME280;65284;51.040;13.722;2023-09-18T04:33:15;99358.25;;;17.74;86.86
76448;BME280;65284;51.040;13.722;2023-09-18T04:35:43;99366.31;;;17.74;86.83
76448;BME280;65284;51.040;13.722;2023-09-18T04:38:10;99358.25;;;17.74;87.13
76448;BME280;65284;51.040;13.722;2023-09-18T04:40:43;99358.72;;;17.71;87.05
76448;BME280;65284;51.040;13.722;2023-09-18T04:43:09;99368.19;;;17.74;86.92
76448;BME280;65284;51.040;13.722;2023-09-18T04:45:36;99360.56;;;17.78;86.91
76448;BME280;65284;51.040;13.722;2023-09-18T04:48:03;99368.28;;;17.67;86.93
76448;BME280;65284;51.040;13.722;2023-09-18T04:50:32;99364.97;;;17.65;87.09
76448;BME280;65284;51.040;13.722;2023-09-18T04:53:00;99356.63;;;17.73;86.88
76448;BME280;65284;51.040;13.722;2023-09-18T04:55:26;99355.75;;;17.80;86.55
76448;BME280;65284;51.040;13.722;2023-09-18T04:57:53;99345.53;;;17.70;86.85
76448;BME280;65284;51.040;13.722;2023-09-18T05:00:19;99347.84;;;17.66;86.96
76448;BME280;65284;51.040;13.722;2023-09-18T05:02:50;99342.47;;;17.66;87.03
76448;BME280;65284;51.040;13.722;2023-09-18T05:05:17;99346.13;;;17.72;86.91
76448;BME280;65284;51.040;13.722;2023-09-18T05:07:44;99351.34;;;17.67;87.03
76448;BME280;65284;51.040;13.722;2023-09-18T05:10:11;99336.84;;;17.68;87.44
76448;BME280;65284;51.040;13.722;2023-09-18T05:12:38;99336.50;;;17.64;87.24
76448;BME280;65284;51.040;13.722;2023-09-18T05:15:05;99330.66;;;17.67;87.31
76448;BME280;65284;51.040;13.722;2023-09-18T05:17:43;99343.88;;;17.69;87.22
76448;BME280;65284;51.040;13.722;2023-09-18T05:20:15;99343.81;;;17.76;86.92
76448;BME280;65284;51.040;13.722;2023-09-18T05:22:44;99334.69;;;17.77;86.85
76448;BME280;65284;51.040;13.722;2023-09-18T05:25:11;99334.69;;;17.77;86.79
76448;BME280;65284;51.040;13.722;2023-09-18T05:27:38;99338.44;;;17.76;86.82
76448;BME280;65284;51.040;13.722;2023-09-18T05:30:15;99338.28;;;17.70;87.09
76448;BME280;65284;51.040;13.722;2023-09-18T05:32:42;99331.84;;;17.71;87.29
76448;BME280;65284;51.040;13.722;2023-09-18T05:35:10;99332.69;;;17.72;87.41
76448;BME280;65284;51.040;13.722;2023-09-18T05:37:42;99338.88;;;17.72;87.32
76448;BME280;65284;51.040;13.722;2023-09-18T05:40:11;99336.22;;;17.91;86.47
76448;BME280;65284;51.040;13.722;2023-09-18T05:42:38;99346.34;;;17.89;86.44
76448;BME280;65284;51.040;13.722;2023-09-18T05:45:06;99342.19;;;17.93;86.53
76448;BME280;65284;51.040;13.722;2023-09-18T05:47:33;99339.50;;;17.93;86.36
76448;BME280;65284;51.040;13.722;2023-09-18T05:50:00;99334.84;;;18.00;86.15
76448;BME280;65284;51.040;13.722;2023-09-18T05:52:26;99336.88;;;18.05;86.07
76448;BME280;65284;51.040;13.722;2023-09-18T05:54:53;99328.94;;;18.10;85.66
76448;BME280;65284;51.040;13.722;2023-09-18T05:57:19;99334.72;;;18.13;85.68
76448;BME280;65284;51.040;13.722;2023-09-18T05:59:46;99334.09;;;18.11;85.64
76448;BME280;65284;51.040;13.722;2023-09-18T06:02:12;99321.84;;;18.15;85.34
76448;BME280;65284;51.040;13.722;2023-09-18T06:04:42;99330.97;;;18.14;85.71
76448;BME280;65284;51.040;13.722;2023-09-18T06:07:09;99317.22;;;18.23;85.02
76448;BME280;65284;51.040;13.722;2023-09-18T06:09:36;99313.94;;;18.21;85.50
76448;BME280;65284;51.040;13.722;2023-09-18T06:12:02;99312.19;;;18.26;85.21
76448;BME280;65284;51.040;13.722;2023-09-18T06:14:31;99308.81;;;18.31;85.50
76448;BME280;65284;51.040;13.722;2023-09-18T06:17:01;99293.88;;;18.35;84.91
76448;BME280;65284;51.040;13.722;2023-09-18T06:19:27;99293.66;;;18.48;84.76
76448;BME280;65284;51.040;13.722;2023-09-18T06:21:54;99282.72;;;18.61;83.92
76448;BME280;65284;51.040;13.722;2023-09-18T06:24:20;99281.19;;;18.65;83.88
76448;BME280;65284;51.040;13.722;2023-09-18T06:26:47;99277.81;;;18.70;83.59
76448;BME280;65284;51.040;13.722;2023-09-18T06:29:14;99276.53;;;18.73;83.53
76448;BME280;65284;51.040;13.722;2023-09-18T06:31:40;99275.75;;;18.84;83.12
76448;BME280;65284;51.040;13.722;2023-09-18T06:34:07;99283.00;;;18.95;82.63
76448;BME280;65284;51.040;13.722;2023-09-18T06:36:34;99274.59;;;18.92;82.50
76448;BME280;65284;51.040;13.722;2023-09-18T06:39:00;99278.22;;;18.97;82.23
76448;BME280;65284;51.040;13.722;2023-09-18T06:41:27;99267.22;;;18.99;82.23
76448;BME280;65284;51.040;13.722;2023-09-18T06:43:53;99259.25;;;19.04;82.15
76448;BME280;65284;51.040;13.722;2023-09-18T06:46:20;99253.88;;;19.04;82.07
76448;BME280;65284;51.040;13.722;2023-09-18T06:48:49;99252.00;;;19.04;82.33
76448;BME280;65284;51.040;13.722;2023-09-18T06:51:18;99250.38;;;19.15;82.01
76448;BME280;65284;51.040;13.722;2023-09-18T06:53:55;99244.50;;;19.18;82.05
76448;BME280;65284;51.040;13.722;2023-09-18T06:56:26;99237.72;;;19.27;81.50
76448;BME280;65284;51.040;13.722;2023-09-18T06:58:53;99239.44;;;19.33;81.53
76448;BME280;65284;51.040;13.722;2023-09-18T07:01:20;99237.09;;;19.37;81.28
76448;BME280;65284;51.040;13.722;2023-09-18T07:03:47;99229.72;;;19.44;81.03
76448;BME280;65284;51.040;13.722;2023-09-18T07:06:14;99226.41;;;19.54;80.69
76448;BME280;65284;51.040;13.722;2023-09-18T07:08:46;99216.88;;;19.63;80.29
76448;BME280;65284;51.040;13.722;2023-09-18T07:11:17;99219.13;;;19.66;79.73
76448;BME280;65284;51.040;13.722;2023-09-18T07:13:43;99210.94;;;19.73;79.73
76448;BME280;65284;51.040;13.722;2023-09-18T07:16:10;99210.53;;;19.81;79.46
76448;BME280;65284;51.040;13.722;2023-09-18T07:18:37;99218.72;;;19.86;79.27
76448;BME280;65284;51.040;13.722;2023-09-18T07:21:03;99212.47;;;19.97;78.88
76448;BME280;65284;51.040;13.722;2023-09-18T07:23:30;99213.22;;;20.10;78.09
76448;BME280;65284;51.040;13.722;2023-09-18T07:25:57;99208.78;;;20.04;78.47
76448;BME280;65284;51.040;13.722;2023-09-18T07:28:26;99202.53;;;20.15;78.11
76448;BME280;65284;51.040;13.722;2023-09-18T07:30:52;99204.25;;;20.21;77.62
76448;BME280;65284;51.040;13.722;2023-09-18T07:33:19;99200.66;;;20.32;77.43
76448;BME280;65284;51.040;13.722;2023-09-18T07:35:47;99201.91;;;20.41;77.18
76448;BME280;65284;51.040;13.722;2023-09-18T07:38:20;99178.25;;;20.49;76.61
76448;BME280;65284;51.040;13.722;2023-09-18T07:40:46;99184.81;;;20.53;76.13
76448;BME280;65284;51.040;13.722;2023-09-18T07:43:14;99182.69;;;20.55;75.95
76448;BME280;65284;51.040;13.722;2023-09-18T07:45:40;99172.56;;;20.62;75.66
76448;BME280;65284;51.040;13.722;2023-09-18T07:48:08;99163.53;;;20.73;75.19
76448;BME280;65284;51.040;13.722;2023-09-18T07:50:35;99166.97;;;20.85;74.62
76448;BME280;65284;51.040;13.722;2023-09-18T07:53:02;99175.13;;;20.90;74.62
76448;BME280;65284;51.040;13.722;2023-09-18T07:55:29;99163.09;;;20.98;74.32
76448;BME280;65284;51.040;13.722;2023-09-18T07:57:56;99167.22;;;21.06;73.98
76448;BME280;65284;51.040;13.722;2023-09-18T08:00:25;99168.19;;;21.17;73.91
76448;BME280;65284;51.040;13.722;2023-09-18T08:02:54;99151.78;;;21.23;74.01
76448;BME280;65284;51.040;13.722;2023-09-18T08:05:24;99160.03;;;21.33;72.73
76448;BME280;65284;51.040;13.722;2023-09-18T08:07:54;99162.72;;;21.33;73.21
76448;BME280;65284;51.040;13.722;2023-09-18T08:10:26;99154.34;;;21.35;72.65
76448;BME280;65284;51.040;13.722;2023-09-18T08:12:52;99155.31;;;21.46;72.74
76448;BME280;65284;51.040;13.722;2023-09-18T08:15:20;99164.50;;;21.45;72.59
76448;BME280;65284;51.040;13.722;2023-09-18T08:17:47;99154.41;;;21.62;71.69
76448;BME280;65284;51.040;13.722;2023-09-18T08:20:16;99156.97;;;21.74;71.55
76448;BME280;65284;51.040;13.722;2023-09-18T08:22:43;99147.81;;;21.75;71.43
76448;BME280;65284;51.040;13.722;2023-09-18T08:25:11;99163.59;;;21.88;70.29
76448;BME280;65284;51.040;13.722;2023-09-18T08:27:38;99151.56;;;22.01;70.31
76448;BME280;65284;51.040;13.722;2023-09-18T08:30:11;99154.84;;;22.08;69.07
76448;BME280;65284;51.040;13.722;2023-09-18T08:32:38;99146.91;;;22.23;69.38
76448;BME280;65284;51.040;13.722;2023-09-18T08:35:06;99154.78;;;22.30;68.16
76448;BME280;65284;51.040;13.722;2023-09-18T08:37:33;99145.09;;;22.34;67.97
76448;BME280;65284;51.040;13.722;2023-09-18T08:39:59;99137.31;;;22.43;67.41
76448;BME280;65284;51.040;13.722;2023-09-18T08:42:45;99144.69;;;22.53;66.44
76448;BME280;65284;51.040;13.722;2023-09-18T08:45:15;99140.69;;;22.65;66.14
76448;BME280;65284;51.040;13.722;2023-09-18T08:47:43;99135.84;;;22.67;66.22
76448;BME280;65284;51.040;13.722;2023-09-18T08:50:12;99134.81;;;22.79;65.81
76448;BME280;65284;51.040;13.722;2023-09-18T08:52:39;99122.94;;;22.85;64.67
76448;BME280;65284;51.040;13.722;2023-09-18T08:55:06;99121.88;;;22.91;63.98
76448;BME280;65284;51.040;13.722;2023-09-18T08:57:36;99121.69;;;22.98;63.78
76448;BME280;65284;51.040;13.722;2023-09-18T09:00:05;99116.56;;;23.06;63.49
76448;BME280;65284;51.040;13.722;2023-09-18T09:02:34;99125.00;;;23.15;63.19
76448;BME280;65284;51.040;13.722;2023-09-18T09:05:01;99119.34;;;23.27;63.83
76448;BME280;65284;51.040;13.722;2023-09-18T09:07:28;99122.41;;;23.56;61.90
76448;BME280;65284;51.040;13.722;2023-09-18T09:09:57;99105.34;;;23.55;61.77
76448;BME280;65284;51.040;13.722;2023-09-18T09:12:49;99090.44;;;23.63;61.47
76448;BME280;65284;51.040;13.722;2023-09-18T09:15:16;99102.63;;;23.66;61.14
76448;BME280;65284;51.040;13.722;2023-09-18T09:17:43;99098.56;;;23.68;60.85
76448;BME280;65284;51.040;13.722;2023-09-18T09:20:14;99105.41;;;23.76;60.67
76448;BME280;65284;51.040;13.722;2023-09-18T09:22:41;99095.91;;;23.73;60.49
76448;BME280;65284;51.040;13.722;2023-09-18T09:25:24;99090.75;;;23.72;60.23
76448;BME280;65284;51.040;13.722;2023-09-18T09:27:53;99097.25;;;23.81;59.42
76448;BME280;65284;51.040;13.722;2023-09-18T09:30:22;99094.56;;;23.86;58.98
76448;BME280;65284;51.040;13.722;2023-09-18T09:32:55;99096.19;;;23.82;59.18
76448;BME280;65284;51.040;13.722;2023-09-18T09:35:26;99105.41;;;23.76;58.54
76448;BME280;65284;51.040;13.722;2023-09-18T09:37:58;99098.34;;;23.75;58.60
76448;BME280;65284;51.040;13.722;2023-09-18T09:40:28;99096.72;;;23.79;58.19
76448;BME280;65284;51.040;13.722;2023-09-18T09:42:56;99084.25;;;23.73;58.90
76448;BME280;65284;51.040;13.722;2023-09-18T09:45:32;99082.63;;;23.77;58.74
76448;BME280;65284;51.040;13.722;2023-09-18T09:48:03;99078.81;;;23.83;57.81
76448;BME280;65284;51.040;13.722;2023-09-18T09:50:57;99085.88;;;23.79;58.33
76448;BME280;65284;51.040;13.722;2023-09-18T09:53:42;99078.28;;;23.86;57.72
76448;BME280;65284;51.040;13.722;2023-09-18T09:56:09;99093.47;;;23.92;57.42
76448;BME280;65284;51.040;13.722;2023-09-18T09:58:36;99095.38;;;23.97;57.61
76448;BME280;65284;51.040;13.722;2023-09-18T10:01:04;99116.25;;;24.01;57.33
76448;BME280;65284;51.040;13.722;2023-09-18T10:03:36;99128.72;;;24.07;57.49
76448;BME280;65284;51.040;13.722;2023-09-18T10:06:04;99143.13;;;24.18;57.00
76448;BME280;65284;51.040;13.722;2023-09-18T10:08:31;99140.13;;;24.25;56.40
76448;BME280;65284;51.040;13.722;2023-09-18T10:11:05;99126.00;;;24.28;56.51
76448;BME280;65284;51.040;13.722;2023-09-18T10:14:00;99139.59;;;24.38;56.37
76448;BME280;65284;51.040;13.722;2023-09-18T10:16:30;99131.44;;;24.48;55.89
76448;BME280;65284;51.040;13.722;2023-09-18T10:24:25;99125.41;;;24.82;55.79
76448;BME280;65284;51.040;13.722;2023-09-18T10:27:00;99118.03;;;24.93;55.36
76448;BME280;65284;51.040;13.722;2023-09-18T10:29:28;99117.75;;;25.00;55.54
76448;BME280;65284;51.040;13.722;2023-09-18T10:31:56;99119.88;;;25.08;54.94
76448;BME280;65284;51.040;13.722;2023-09-18T10:34:24;99111.72;;;25.23;54.98
76448;BME280;65284;51.040;13.722;2023-09-18T10:36:53;99114.94;;;25.25;55.61
76448;BME280;65284;51.040;13.722;2023-09-18T10:39:20;99109.75;;;25.29;55.27
76448;BME280;65284;51.040;13.722;2023-09-18T10:41:54;99110.47;;;25.50;54.24
76448;BME280;65284;51.040;13.722;2023-09-18T10:44:23;99108.81;;;25.49;54.17
76448;BME280;65284;51.040;13.722;2023-09-18T10:46:51;99105.75;;;25.60;53.61
76448;BME280;65284;51.040;13.722;2023-09-18T10:49:18;99108.28;;;25.52;53.03
76448;BME280;65284;51.040;13.722;2023-09-18T10:51:46;99091.69;;;25.53;52.65
76448;BME280;65284;51.040;13.722;2023-09-18T10:54:20;99099.53;;;25.55;52.46
76448;BME280;65284;51.040;13.722;2023-09-18T10:56:47;99098.47;;;25.56;52.60
76448;BME280;65284;51.040;13.722;2023-09-18T10:59:14;99111.44;;;25.64;52.52
76448;BME280;65284;51.040;13.722;2023-09-18T11:01:42;99103.91;;;25.56;52.65
76448;BME280;65284;51.040;13.722;2023-09-18T11:04:09;99108.28;;;25.52;52.97
76448;BME280;65284;51.040;13.722;2023-09-18T11:09:26;99113.00;;;25.75;52.30
76448;BME280;65284;51.040;13.722;2023-09-18T11:14:55;99113.66;;;25.62;50.26
76448;BME280;65284;51.040;13.722;2023-09-18T11:20:03;99110.41;;;25.60;50.23
76448;BME280;65284;51.040;13.722;2023-09-18T11:22:39;99115.72;;;25.75;49.38
76448;BME280;65284;51.040;13.722;2023-09-18T11:25:29;99115.16;;;25.78;48.95
76448;BME280;65284;51.040;13.722;2023-09-18T11:28:02;99115.72;;;25.75;49.09
76448;BME280;65284;51.040;13.722;2023-09-18T11:30:29;99117.88;;;25.83;49.29
76448;BME280;65284;51.040;13.722;2023-09-18T11:32:56;99111.53;;;25.93;48.72
76448;BME280;65284;51.040;13.722;2023-09-18T11:35:24;99110.19;;;25.91;48.92
76448;BME280;65284;51.040;13.722;2023-09-18T11:38:03;99114.19;;;26.03;49.13
76448;BME280;65284;51.040;13.722;2023-09-18T11:40:33;99113.53;;;26.17;48.37
76448;BME280;65284;51.040;13.722;2023-09-18T11:43:25;99123.31;;;26.47;48.38
76448;BME280;65284;51.040;13.722;2023-09-18T11:45:54;99124.97;;;26.48;48.45
76448;BME280;65284;51.040;13.722;2023-09-18T11:48:26;99108.00;;;26.56;48.89
76448;BME280;65284;51.040;13.722;2023-09-18T11:50:57;99105.06;;;26.52;49.28
76448;BME280;65284;51.040;13.722;2023-09-18T11:53:27;99108.91;;;26.75;49.08
76448;BME280;65284;51.040;13.722;2023-09-18T11:55:54;99103.44;;;26.75;48.86
76448;BME280;65284;51.040;13.722;2023-09-18T11:58:21;99106.97;;;26.76;49.08
76448;BME280;65284;51.040;13.722;2023-09-18T12:00:50;99111.09;;;26.73;48.09
76448;BME280;65284;51.040;13.722;2023-09-18T12:03:20;99105.94;;;26.72;48.28
76448;BME280;65284;51.040;13.722;2023-09-18T12:05:56;99101.84;;;26.74;48.16
76448;BME280;65284;51.040;13.722;2023-09-18T12:08:24;99096.59;;;26.78;48.72
76448;BME280;65284;51.040;13.722;2023-09-18T12:10:54;99092.31;;;26.96;48.03
76448;BME280;65284;51.040;13.722;2023-09-18T12:13:21;99097.63;;;26.82;48.58
76448;BME280;65284;51.040;13.722;2023-09-18T12:15:48;99096.72;;;26.92;48.37
76448;BME280;65284;51.040;13.722;2023-09-18T12:18:16;99084.19;;;26.91;48.06
76448;BME280;65284;51.040;13.722;2023-09-18T12:20:49;99084.72;;;26.93;49.25
76448;BME280;65284;51.040;13.722;2023-09-18T12:23:17;99090.75;;;26.90;50.70
76448;BME280;65284;51.040;13.722;2023-09-18T12:25:47;99087.63;;;26.77;51.67
76448;BME280;65284;51.040;13.722;2023-09-18T12:28:16;99090.56;;;26.81;48.95
76448;BME280;65284;51.040;13.722;2023-09-18T12:30:44;99087.22;;;26.89;48.74
76448;BME280;65284;51.040;13.722;2023-09-18T12:33:14;99087.38;;;26.98;47.76
76448;BME280;65284;51.040;13.722;2023-09-18T12:35:41;99087.78;;;27.10;46.64
76448;BME280;65284;51.040;13.722;2023-09-18T12:38:16;99091.00;;;27.12;46.69
76448;BME280;65284;51.040;13.722;2023-09-18T12:40:46;99102.84;;;27.27;47.97
76448;BME280;65284;51.040;13.722;2023-09-18T12:43:14;99101.38;;;27.53;48.67
76448;BME280;65284;51.040;13.722;2023-09-18T12:45:43;99104.63;;;27.55;47.48
76448;BME280;65284;51.040;13.722;2023-09-18T12:48:12;99103.44;;;27.61;48.00
76448;BME280;65284;51.040;13.722;2023-09-18T12:50:39;99105.88;;;27.44;49.65
76448;BME280;65284;51.040;13.722;2023-09-18T12:53:09;99093.88;;;27.45;50.66
76448;BME280;65284;51.040;13.722;2023-09-18T12:55:37;99102.63;;;27.23;51.25
76448;BME280;65284;51.040;13.722;2023-09-18T12:58:04;99099.25;;;27.07;51.41
76448;BME280;65284;51.040;13.722;2023-09-18T13:00:35;99097.03;;;27.09;51.50
76448;BME280;65284;51.040;13.722;2023-09-18T13:03:02;99095.34;;;27.18;51.24
76448;BME280;65284;51.040;13.722;2023-09-18T13:05:31;99093.28;;;27.05;51.42
76448;BME280;65284;51.040;13.722;2023-09-18T13:08:05;99100.47;;;26.96;52.05
76448;BME280;65284;51.040;13.722;2023-09-18T13:10:45;99099.03;;;27.04;51.84
76448;BME280;65284;51.040;13.722;2023-09-18T13:13:17;99099.38;;;26.97;52.33